sensor_id;sensor_type;location;lat;lon;timestamp;P1;durP1;ratioP1;P2;durP2;ratioP2
31716;SDS011;18301;51.076;17.046;2023-02-14T00:04:17;18.02;;;10.30;;
31716;SDS011;18301;51.076;17.046;2023-02-14T00:09:19;20.48;;;10.23;;
31716;SDS011;18301;51.076;17.046;2023-02-14T00:14:20;19.52;;;10.25;;
31716;SDS011;18301;51.076;17.046;2023-02-14T00:19:41;16.65;;;9.15;;
31716;SDS011;18301;51.076;17.046;2023-02-14T00:24:42;18.52;;;10.00;;
31716;SDS011;18301;51.076;17.046;2023-02-14T00:29:43;19.02;;;10.27;;
31716;SDS011;18301;51.076;17.046;2023-02-14T00:34:45;18.92;;;9.95;;
31716;SDS011;18301;51.076;17.046;2023-02-14T00:39:46;18.60;;;10.40;;
31716;SDS011;18301;51.076;17.046;2023-02-14T00:44:48;20.35;;;11.13;;
31716;SDS011;18301;51.076;17.046;2023-02-14T00:49:49;19.77;;;10.18;;
31716;SDS011;18301;51.076;17.046;2023-02-14T00:54:51;18.88;;;10.38;;
31716;SDS011;18301;51.076;17.046;2023-02-14T00:59:52;20.55;;;10.15;;
31716;SDS011;18301;51.076;17.046;2023-02-14T01:04:53;20.70;;;10.75;;
31716;SDS011;18301;51.076;17.046;2023-02-14T01:09:55;17.40;;;9.70;;
31716;SDS011;18301;51.076;17.046;2023-02-14T01:14:56;18.20;;;9.93;;
31716;SDS011;18301;51.076;17.046;2023-02-14T01:19:58;18.92;;;10.75;;
31716;SDS011;18301;51.076;17.046;2023-02-14T01:24:59;21.05;;;10.68;;
31716;SDS011;18301;51.076;17.046;2023-02-14T01:30:01;21.75;;;10.15;;
31716;SDS011;18301;51.076;17.046;2023-02-14T01:35:03;18.38;;;9.63;;
31716;SDS011;18301;51.076;17.046;2023-02-14T01:40:05;18.25;;;10.32;;
31716;SDS011;18301;51.076;17.046;2023-02-14T01:45:18;18.90;;;10.50;;
31716;SDS011;18301;51.076;17.046;2023-02-14T01:50:32;16.08;;;9.10;;
31716;SDS011;18301;51.076;17.046;2023-02-14T01:55:37;17.45;;;9.73;;
31716;SDS011;18301;51.076;17.046;2023-02-14T02:00:42;14.98;;;9.23;;
31716;SDS011;18301;51.076;17.046;2023-02-14T02:06:02;16.70;;;9.48;;
31716;SDS011;18301;51.076;17.046;2023-02-14T02:11:05;16.23;;;9.85;;
31716;SDS011;18301;51.076;17.046;2023-02-14T02:16:17;17.42;;;8.75;;
31716;SDS011;18301;51.076;17.046;2023-02-14T02:27:06;15.20;;;8.80;;
31716;SDS011;18301;51.076;17.046;2023-02-14T02:43:42;15.32;;;8.27;;
31716;SDS011;18301;51.076;17.046;2023-02-14T02:54:58;18.27;;;8.73;;
31716;SDS011;18301;51.076;17.046;2023-02-14T03:00:06;14.65;;;8.85;;
31716;SDS011;18301;51.076;17.046;2023-02-14T03:05:10;14.82;;;8.68;;
31716;SDS011;18301;51.076;17.046;2023-02-14T03:10:13;17.20;;;9.13;;
31716;SDS011;18301;51.076;17.046;2023-02-14T03:15:20;15.32;;;9.65;;
31716;SDS011;18301;51.076;17.046;2023-02-14T03:26:11;14.68;;;9.13;;
31716;SDS011;18301;51.076;17.046;2023-02-14T03:31:26;16.48;;;8.82;;
31716;SDS011;18301;51.076;17.046;2023-02-14T03:41:39;15.68;;;9.27;;
31716;SDS011;18301;51.076;17.046;2023-02-14T03:46:51;14.48;;;8.40;;
31716;SDS011;18301;51.076;17.046;2023-02-14T03:51:58;12.52;;;7.82;;
31716;SDS011;18301;51.076;17.046;2023-02-14T03:57:17;15.48;;;8.88;;
31716;SDS011;18301;51.076;17.046;2023-02-14T04:02:26;11.45;;;7.20;;
31716;SDS011;18301;51.076;17.046;2023-02-14T04:07:48;14.93;;;9.50;;
31716;SDS011;18301;51.076;17.046;2023-02-14T04:12:52;22.00;;;10.75;;
31716;SDS011;18301;51.076;17.046;2023-02-14T04:17:54;16.05;;;9.50;;
31716;SDS011;18301;51.076;17.046;2023-02-14T04:23:14;14.98;;;9.57;;
31716;SDS011;18301;51.076;17.046;2023-02-14T04:28:15;17.55;;;9.35;;
31716;SDS011;18301;51.076;17.046;2023-02-14T04:33:17;15.38;;;8.68;;
31716;SDS011;18301;51.076;17.046;2023-02-14T04:38:18;16.08;;;8.48;;
31716;SDS011;18301;51.076;17.046;2023-02-14T04:43:20;14.32;;;8.93;;
31716;SDS011;18301;51.076;17.046;2023-02-14T04:48:21;16.77;;;9.98;;
31716;SDS011;18301;51.076;17.046;2023-02-14T04:53:23;18.50;;;10.85;;
31716;SDS011;18301;51.076;17.046;2023-02-14T04:58:25;18.02;;;9.88;;
31716;SDS011;18301;51.076;17.046;2023-02-14T05:03:27;14.75;;;9.05;;
31716;SDS011;18301;51.076;17.046;2023-02-14T05:08:28;16.15;;;9.68;;
31716;SDS011;18301;51.076;17.046;2023-02-14T05:13:30;18.17;;;9.68;;
31716;SDS011;18301;51.076;17.046;2023-02-14T05:18:34;20.33;;;10.30;;
31716;SDS011;18301;51.076;17.046;2023-02-14T05:23:35;18.85;;;9.25;;
31716;SDS011;18301;51.076;17.046;2023-02-14T05:28:37;18.15;;;9.40;;
31716;SDS011;18301;51.076;17.046;2023-02-14T05:33:41;17.08;;;10.50;;
31716;SDS011;18301;51.076;17.046;2023-02-14T05:38:42;18.55;;;10.00;;
31716;SDS011;18301;51.076;17.046;2023-02-14T05:43:44;18.45;;;10.40;;
31716;SDS011;18301;51.076;17.046;2023-02-14T05:48:45;19.02;;;10.88;;
31716;SDS011;18301;51.076;17.046;2023-02-14T05:53:47;16.42;;;9.40;;
31716;SDS011;18301;51.076;17.046;2023-02-14T05:58:48;19.48;;;10.90;;
31716;SDS011;18301;51.076;17.046;2023-02-14T06:03:50;18.90;;;10.55;;
31716;SDS011;18301;51.076;17.046;2023-02-14T06:08:51;18.17;;;10.15;;
31716;SDS011;18301;51.076;17.046;2023-02-14T06:13:53;18.27;;;10.00;;
31716;SDS011;18301;51.076;17.046;2023-02-14T06:18:54;17.05;;;10.50;;
31716;SDS011;18301;51.076;17.046;2023-02-14T06:23:56;18.42;;;9.77;;
31716;SDS011;18301;51.076;17.046;2023-02-14T06:28:57;22.33;;;11.68;;
31716;SDS011;18301;51.076;17.046;2023-02-14T06:33:59;22.38;;;10.38;;
31716;SDS011;18301;51.076;17.046;2023-02-14T06:39:01;17.98;;;10.15;;
31716;SDS011;18301;51.076;17.046;2023-02-14T06:44:02;18.48;;;10.27;;
31716;SDS011;18301;51.076;17.046;2023-02-14T06:49:04;17.23;;;9.70;;
31716;SDS011;18301;51.076;17.046;2023-02-14T06:54:06;17.67;;;9.60;;
31716;SDS011;18301;51.076;17.046;2023-02-14T06:59:07;20.13;;;9.75;;
31716;SDS011;18301;51.076;17.046;2023-02-14T07:04:08;20.00;;;10.20;;
31716;SDS011;18301;51.076;17.046;2023-02-14T07:09:10;19.17;;;9.75;;
31716;SDS011;18301;51.076;17.046;2023-02-14T07:14:12;20.83;;;10.48;;
31716;SDS011;18301;51.076;17.046;2023-02-14T07:19:14;20.20;;;10.48;;
31716;SDS011;18301;51.076;17.046;2023-02-14T07:24:15;18.63;;;10.02;;
31716;SDS011;18301;51.076;17.046;2023-02-14T07:29:17;20.52;;;10.95;;
31716;SDS011;18301;51.076;17.046;2023-02-14T07:34:18;20.48;;;11.07;;
31716;SDS011;18301;51.076;17.046;2023-02-14T07:39:20;24.98;;;11.90;;
31716;SDS011;18301;51.076;17.046;2023-02-14T07:44:21;19.95;;;11.15;;
31716;SDS011;18301;51.076;17.046;2023-02-14T07:49:23;18.38;;;10.55;;
31716;SDS011;18301;51.076;17.046;2023-02-14T07:54:24;15.07;;;8.70;;
31716;SDS011;18301;51.076;17.046;2023-02-14T07:59:26;19.55;;;10.32;;
31716;SDS011;18301;51.076;17.046;2023-02-14T08:04:27;14.57;;;8.73;;
31716;SDS011;18301;51.076;17.046;2023-02-14T08:09:29;19.27;;;9.60;;
31716;SDS011;18301;51.076;17.046;2023-02-14T08:14:30;16.77;;;9.50;;
31716;SDS011;18301;51.076;17.046;2023-02-14T08:19:32;18.50;;;10.27;;
31716;SDS011;18301;51.076;17.046;2023-02-14T08:24:34;19.65;;;10.23;;
31716;SDS011;18301;51.076;17.046;2023-02-14T08:29:35;17.15;;;10.48;;
31716;SDS011;18301;51.076;17.046;2023-02-14T08:34:37;15.80;;;9.60;;
31716;SDS011;18301;51.076;17.046;2023-02-14T08:39:38;17.83;;;10.80;;
31716;SDS011;18301;51.076;17.046;2023-02-14T08:44:40;20.20;;;11.23;;
31716;SDS011;18301;51.076;17.046;2023-02-14T08:49:41;22.75;;;13.20;;
31716;SDS011;18301;51.076;17.046;2023-02-14T08:54:43;19.30;;;11.02;;
31716;SDS011;18301;51.076;17.046;2023-02-14T08:59:44;18.35;;;10.27;;
31716;SDS011;18301;51.076;17.046;2023-02-14T09:04:46;16.50;;;10.05;;
31716;SDS011;18301;51.076;17.046;2023-02-14T09:09:47;17.55;;;9.23;;
31716;SDS011;18301;51.076;17.046;2023-02-14T09:14:49;14.73;;;8.55;;
31716;SDS011;18301;51.076;17.046;2023-02-14T09:19:50;18.10;;;9.50;;
31716;SDS011;18301;51.076;17.046;2023-02-14T09:24:51;19.83;;;9.77;;
31716;SDS011;18301;51.076;17.046;2023-02-14T09:29:53;16.48;;;9.27;;
31716;SDS011;18301;51.076;17.046;2023-02-14T09:34:54;16.73;;;8.80;;
31716;SDS011;18301;51.076;17.046;2023-02-14T09:39:56;18.55;;;9.05;;
31716;SDS011;18301;51.076;17.046;2023-02-14T09:45:10;15.23;;;8.95;;
31716;SDS011;18301;51.076;17.046;2023-02-14T09:50:16;15.32;;;8.93;;
31716;SDS011;18301;51.076;17.046;2023-02-14T09:55:30;14.38;;;8.52;;
31716;SDS011;18301;51.076;17.046;2023-02-14T10:01:19;16.77;;;9.52;;
31716;SDS011;18301;51.076;17.046;2023-02-14T10:12:00;13.55;;;8.13;;
31716;SDS011;18301;51.076;17.046;2023-02-14T10:17:09;16.15;;;9.23;;
31716;SDS011;18301;51.076;17.046;2023-02-14T10:22:23;16.55;;;8.80;;
31716;SDS011;18301;51.076;17.046;2023-02-14T10:27:38;13.40;;;8.07;;
31716;SDS011;18301;51.076;17.046;2023-02-14T10:32:49;16.02;;;8.85;;
31716;SDS011;18301;51.076;17.046;2023-02-14T10:43:57;12.85;;;7.75;;
31716;SDS011;18301;51.076;17.046;2023-02-14T10:49:21;10.68;;;6.28;;
31716;SDS011;18301;51.076;17.046;2023-02-14T10:54:35;13.77;;;8.53;;
31716;SDS011;18301;51.076;17.046;2023-02-14T11:05:02;11.10;;;6.50;;
31716;SDS011;18301;51.076;17.046;2023-02-14T11:10:09;11.40;;;7.20;;
31716;SDS011;18301;51.076;17.046;2023-02-14T11:15:24;11.90;;;7.15;;
31716;SDS011;18301;51.076;17.046;2023-02-14T11:20:29;12.80;;;7.03;;
31716;SDS011;18301;51.076;17.046;2023-02-14T11:25:31;11.77;;;7.40;;
31716;SDS011;18301;51.076;17.046;2023-02-14T11:30:38;13.05;;;7.43;;
31716;SDS011;18301;51.076;17.046;2023-02-14T11:35:42;10.30;;;6.47;;
31716;SDS011;18301;51.076;17.046;2023-02-14T11:51:44;11.45;;;6.53;;
31716;SDS011;18301;51.076;17.046;2023-02-14T11:56:53;13.55;;;7.82;;
31716;SDS011;18301;51.076;17.046;2023-02-14T12:01:57;12.85;;;7.78;;
31716;SDS011;18301;51.076;17.046;2023-02-14T12:07:13;13.32;;;7.85;;
31716;SDS011;18301;51.076;17.046;2023-02-14T12:12:19;10.88;;;5.93;;
31716;SDS011;18301;51.076;17.046;2023-02-14T12:17:28;9.73;;;5.65;;
31716;SDS011;18301;51.076;17.046;2023-02-14T12:22:39;8.15;;;5.65;;
31716;SDS011;18301;51.076;17.046;2023-02-14T12:27:47;6.80;;;4.85;;
31716;SDS011;18301;51.076;17.046;2023-02-14T12:32:54;11.50;;;5.85;;
31716;SDS011;18301;51.076;17.046;2023-02-14T12:38:05;8.05;;;4.22;;
31716;SDS011;18301;51.076;17.046;2023-02-14T12:43:24;10.50;;;5.20;;
31716;SDS011;18301;51.076;17.046;2023-02-14T13:20:54;13.13;;;6.57;;
31716;SDS011;18301;51.076;17.046;2023-02-14T13:26:03;11.02;;;6.50;;
31716;SDS011;18301;51.076;17.046;2023-02-14T13:31:10;14.63;;;7.03;;
31716;SDS011;18301;51.076;17.046;2023-02-14T13:36:12;10.50;;;7.07;;
31716;SDS011;18301;51.076;17.046;2023-02-14T13:41:14;9.13;;;5.90;;
31716;SDS011;18301;51.076;17.046;2023-02-14T13:51:48;10.40;;;6.35;;
31716;SDS011;18301;51.076;17.046;2023-02-14T13:56:52;10.63;;;6.03;;
31716;SDS011;18301;51.076;17.046;2023-02-14T14:01:54;9.68;;;5.95;;
31716;SDS011;18301;51.076;17.046;2023-02-14T14:12:07;10.52;;;6.55;;
31716;SDS011;18301;51.076;17.046;2023-02-14T14:17:32;13.13;;;7.28;;
31716;SDS011;18301;51.076;17.046;2023-02-14T14:23:00;11.27;;;6.72;;
31716;SDS011;18301;51.076;17.046;2023-02-14T14:28:02;12.07;;;6.70;;
31716;SDS011;18301;51.076;17.046;2023-02-14T14:33:15;14.23;;;7.35;;
31716;SDS011;18301;51.076;17.046;2023-02-14T14:38:27;13.38;;;7.55;;
31716;SDS011;18301;51.076;17.046;2023-02-14T14:43:31;15.02;;;7.15;;
31716;SDS011;18301;51.076;17.046;2023-02-14T14:48:45;8.88;;;6.32;;
31716;SDS011;18301;51.076;17.046;2023-02-14T14:58:54;19.02;;;12.32;;
31716;SDS011;18301;51.076;17.046;2023-02-14T15:09:21;10.27;;;6.53;;
31716;SDS011;18301;51.076;17.046;2023-02-14T15:14:31;10.80;;;6.55;;
31716;SDS011;18301;51.076;17.046;2023-02-14T15:19:37;10.75;;;7.07;;
31716;SDS011;18301;51.076;17.046;2023-02-14T15:24:43;10.68;;;6.50;;
31716;SDS011;18301;51.076;17.046;2023-02-14T15:29:58;10.18;;;7.07;;
31716;SDS011;18301;51.076;17.046;2023-02-14T15:35:09;12.52;;;7.30;;
31716;SDS011;18301;51.076;17.046;2023-02-14T15:40:19;13.98;;;8.38;;
31716;SDS011;18301;51.076;17.046;2023-02-14T15:50:29;10.15;;;7.05;;
31716;SDS011;18301;51.076;17.046;2023-02-14T15:55:32;12.40;;;8.18;;
31716;SDS011;18301;51.076;17.046;2023-02-14T16:00:35;12.63;;;7.78;;
31716;SDS011;18301;51.076;17.046;2023-02-14T16:05:37;17.05;;;9.00;;
31716;SDS011;18301;51.076;17.046;2023-02-14T16:10:39;14.25;;;8.15;;
31716;SDS011;18301;51.076;17.046;2023-02-14T16:15:54;15.93;;;9.70;;
31716;SDS011;18301;51.076;17.046;2023-02-14T16:21:41;15.27;;;8.25;;
31716;SDS011;18301;51.076;17.046;2023-02-14T16:26:32;16.95;;;10.13;;
31716;SDS011;18301;51.076;17.046;2023-02-14T16:31:37;12.52;;;7.97;;
31716;SDS011;18301;51.076;17.046;2023-02-14T16:37:04;9.73;;;7.18;;
31716;SDS011;18301;51.076;17.046;2023-02-14T16:42:11;12.05;;;7.63;;
31716;SDS011;18301;51.076;17.046;2023-02-14T16:47:17;19.27;;;11.32;;
31716;SDS011;18301;51.076;17.046;2023-02-14T16:52:21;23.83;;;12.60;;
31716;SDS011;18301;51.076;17.046;2023-02-14T16:57:26;17.65;;;11.13;;
31716;SDS011;18301;51.076;17.046;2023-02-14T17:02:32;17.60;;;11.68;;
31716;SDS011;18301;51.076;17.046;2023-02-14T17:07:34;18.67;;;12.23;;
31716;SDS011;18301;51.076;17.046;2023-02-14T17:12:37;22.27;;;12.45;;
31716;SDS011;18301;51.076;17.046;2023-02-14T17:17:41;21.65;;;11.50;;
31716;SDS011;18301;51.076;17.046;2023-02-14T17:22:45;21.52;;;13.30;;
31716;SDS011;18301;51.076;17.046;2023-02-14T17:27:47;19.42;;;11.88;;
31716;SDS011;18301;51.076;17.046;2023-02-14T17:32:49;23.58;;;13.60;;
31716;SDS011;18301;51.076;17.046;2023-02-14T17:37:51;15.73;;;9.98;;
31716;SDS011;18301;51.076;17.046;2023-02-14T17:42:52;13.35;;;8.15;;
31716;SDS011;18301;51.076;17.046;2023-02-14T17:47:53;14.25;;;8.80;;
31716;SDS011;18301;51.076;17.046;2023-02-14T17:52:55;13.48;;;9.23;;
31716;SDS011;18301;51.076;17.046;2023-02-14T17:57:57;13.95;;;8.35;;
31716;SDS011;18301;51.076;17.046;2023-02-14T18:02:58;12.60;;;7.93;;
31716;SDS011;18301;51.076;17.046;2023-02-14T18:08:00;13.50;;;7.90;;
31716;SDS011;18301;51.076;17.046;2023-02-14T18:13:01;19.73;;;10.48;;
31716;SDS011;18301;51.076;17.046;2023-02-14T18:18:03;12.85;;;7.68;;
31716;SDS011;18301;51.076;17.046;2023-02-14T18:23:04;13.98;;;9.10;;
31716;SDS011;18301;51.076;17.046;2023-02-14T18:28:07;13.63;;;9.20;;
31716;SDS011;18301;51.076;17.046;2023-02-14T18:33:08;16.73;;;9.77;;
31716;SDS011;18301;51.076;17.046;2023-02-14T18:38:10;16.80;;;10.70;;
31716;SDS011;18301;51.076;17.046;2023-02-14T18:43:12;18.15;;;10.88;;
31716;SDS011;18301;51.076;17.046;2023-02-14T18:48:13;17.40;;;11.13;;
31716;SDS011;18301;51.076;17.046;2023-02-14T18:53:15;24.17;;;13.02;;
31716;SDS011;18301;51.076;17.046;2023-02-14T18:58:16;23.45;;;12.65;;
31716;SDS011;18301;51.076;17.046;2023-02-14T19:03:19;26.42;;;13.60;;
31716;SDS011;18301;51.076;17.046;2023-02-14T19:08:20;17.00;;;10.30;;
31716;SDS011;18301;51.076;17.046;2023-02-14T19:13:22;17.70;;;10.50;;
31716;SDS011;18301;51.076;17.046;2023-02-14T19:18:28;83.43;;;38.45;;
31716;SDS011;18301;51.076;17.046;2023-02-14T19:23:29;43.38;;;19.90;;
31716;SDS011;18301;51.076;17.046;2023-02-14T19:28:30;21.88;;;12.55;;
31716;SDS011;18301;51.076;17.046;2023-02-14T19:33:38;21.13;;;11.80;;
31716;SDS011;18301;51.076;17.046;2023-02-14T19:38:41;30.13;;;14.88;;
31716;SDS011;18301;51.076;17.046;2023-02-14T19:43:47;25.77;;;12.85;;
31716;SDS011;18301;51.076;17.046;2023-02-14T19:48:49;26.00;;;13.27;;
31716;SDS011;18301;51.076;17.046;2023-02-14T19:53:51;23.33;;;13.43;;
31716;SDS011;18301;51.076;17.046;2023-02-14T19:58:53;28.52;;;13.70;;
31716;SDS011;18301;51.076;17.046;2023-02-14T20:03:58;27.75;;;14.57;;
31716;SDS011;18301;51.076;17.046;2023-02-14T20:09:00;37.55;;;18.33;;
31716;SDS011;18301;51.076;17.046;2023-02-14T20:14:02;53.70;;;28.60;;
31716;SDS011;18301;51.076;17.046;2023-02-14T20:19:05;35.50;;;19.13;;
31716;SDS011;18301;51.076;17.046;2023-02-14T20:24:09;32.00;;;16.10;;
31716;SDS011;18301;51.076;17.046;2023-02-14T20:29:13;34.08;;;18.05;;
31716;SDS011;18301;51.076;17.046;2023-02-14T20:34:15;32.10;;;15.13;;
31716;SDS011;18301;51.076;17.046;2023-02-14T20:39:18;32.58;;;16.17;;
31716;SDS011;18301;51.076;17.046;2023-02-14T20:44:21;34.55;;;17.90;;
31716;SDS011;18301;51.076;17.046;2023-02-14T20:49:23;43.10;;;24.20;;
31716;SDS011;18301;51.076;17.046;2023-02-14T20:54:26;38.55;;;19.33;;
31716;SDS011;18301;51.076;17.046;2023-02-14T20:59:29;37.25;;;18.92;;
31716;SDS011;18301;51.076;17.046;2023-02-14T21:04:30;41.97;;;21.30;;
31716;SDS011;18301;51.076;17.046;2023-02-14T21:09:32;37.05;;;18.05;;
31716;SDS011;18301;51.076;17.046;2023-02-14T21:14:33;34.35;;;17.70;;
31716;SDS011;18301;51.076;17.046;2023-02-14T21:19:35;33.88;;;16.95;;
31716;SDS011;18301;51.076;17.046;2023-02-14T21:24:37;39.30;;;18.98;;
31716;SDS011;18301;51.076;17.046;2023-02-14T21:29:40;38.22;;;18.50;;
31716;SDS011;18301;51.076;17.046;2023-02-14T21:34:41;39.05;;;18.00;;
31716;SDS011;18301;51.076;17.046;2023-02-14T21:39:43;35.78;;;17.40;;
31716;SDS011;18301;51.076;17.046;2023-02-14T21:44:45;38.13;;;17.25;;
31716;SDS011;18301;51.076;17.046;2023-02-14T21:50:13;41.13;;;18.33;;
31716;SDS011;18301;51.076;17.046;2023-02-14T22:00:34;47.67;;;21.08;;
31716;SDS011;18301;51.076;17.046;2023-02-14T22:05:36;36.88;;;18.00;;
31716;SDS011;18301;51.076;17.046;2023-02-14T22:10:37;36.97;;;18.20;;
31716;SDS011;18301;51.076;17.046;2023-02-14T22:15:40;34.17;;;17.52;;
31716;SDS011;18301;51.076;17.046;2023-02-14T22:20:42;39.78;;;17.92;;
31716;SDS011;18301;51.076;17.046;2023-02-14T22:25:43;37.88;;;17.85;;
31716;SDS011;18301;51.076;17.046;2023-02-14T22:30:45;42.08;;;18.85;;
31716;SDS011;18301;51.076;17.046;2023-02-14T22:35:46;38.47;;;18.13;;
31716;SDS011;18301;51.076;17.046;2023-02-14T22:40:48;34.63;;;16.65;;
31716;SDS011;18301;51.076;17.046;2023-02-14T22:45:49;38.17;;;17.05;;
31716;SDS011;18301;51.076;17.046;2023-02-14T22:50:51;37.20;;;18.02;;
31716;SDS011;18301;51.076;17.046;2023-02-14T22:55:52;33.13;;;15.63;;
31716;SDS011;18301;51.076;17.046;2023-02-14T23:00:53;32.70;;;15.23;;
31716;SDS011;18301;51.076;17.046;2023-02-14T23:05:55;32.95;;;15.65;;
31716;SDS011;18301;51.076;17.046;2023-02-14T23:11:04;31.23;;;14.35;;
31716;SDS011;18301;51.076;17.046;2023-02-14T23:16:07;30.52;;;13.90;;
31716;SDS011;18301;51.076;17.046;2023-02-14T23:21:28;28.15;;;14.30;;
31716;SDS011;18301;51.076;17.046;2023-02-14T23:26:48;28.55;;;14.02;;
31716;SDS011;18301;51.076;17.046;2023-02-14T23:31:50;26.02;;;12.68;;
31716;SDS011;18301;51.076;17.046;2023-02-14T23:36:52;28.33;;;12.90;;
31716;SDS011;18301;51.076;17.046;2023-02-14T23:41:53;25.88;;;12.93;;
31716;SDS011;18301;51.076;17.046;2023-02-14T23:46:56;27.10;;;13.38;;
31716;SDS011;18301;51.076;17.046;2023-02-14T23:51:58;29.25;;;14.20;;
31716;SDS011;18301;51.076;17.046;2023-02-14T23:57:00;28.08;;;14.02;;
